sensor_id;sensor_type;location;lat;lon;timestamp;temperature;humidity
1379;DHT22;683;48.738;9.226;2023-04-01T00:01:20;7.20;99.90
1379;DHT22;683;48.738;9.226;2023-04-01T00:03:48;7.20;99.90
1379;DHT22;683;48.738;9.226;2023-04-01T00:06:16;7.20;99.90
1379;DHT22;683;48.738;9.226;2023-04-01T00:08:49;7.20;99.90
1379;DHT22;683;48.738;9.226;2023-04-01T00:11:17;7.30;99.90
1379;DHT22;683;48.738;9.226;2023-04-01T00:13:47;7.30;99.90
1379;DHT22;683;48.738;9.226;2023-04-01T00:16:16;7.40;99.90
1379;DHT22;683;48.738;9.226;2023-04-01T00:18:44;7.40;99.90
1379;DHT22;683;48.738;9.226;2023-04-01T00:21:13;7.40;99.90
1379;DHT22;683;48.738;9.226;2023-04-01T00:23:40;7.40;99.90
1379;DHT22;683;48.738;9.226;2023-04-01T00:26:07;7.40;99.90
1379;DHT22;683;48.738;9.226;2023-04-01T00:28:37;7.40;99.90
1379;DHT22;683;48.738;9.226;2023-04-01T00:31:05;7.40;99.90
1379;DHT22;683;48.738;9.226;2023-04-01T00:33:33;7.30;99.90
1379;DHT22;683;48.738;9.226;2023-04-01T00:36:06;7.30;99.90
1379;DHT22;683;48.738;9.226;2023-04-01T00:38:35;7.30;99.90
1379;DHT22;683;48.738;9.226;2023-04-01T00:41:07;7.20;99.90
1379;DHT22;683;48.738;9.226;2023-04-01T00:43:36;7.30;99.90
1379;DHT22;683;48.738;9.226;2023-04-01T00:46:04;7.20;99.90
1379;DHT22;683;48.738;9.226;2023-04-01T00:48:36;7.20;99.90
1379;DHT22;683;48.738;9.226;2023-04-01T00:51:07;7.30;99.90
1379;DHT22;683;48.738;9.226;2023-04-01T00:53:38;7.30;99.90
1379;DHT22;683;48.738;9.226;2023-04-01T00:56:10;7.40;99.90
1379;DHT22;683;48.738;9.226;2023-04-01T00:58:42;7.40;99.90
1379;DHT22;683;48.738;9.226;2023-04-01T01:01:11;7.40;99.90
1379;DHT22;683;48.738;9.226;2023-04-01T01:03:38;7.40;99.90
1379;DHT22;683;48.738;9.226;2023-04-01T01:06:23;7.40;99.90
1379;DHT22;683;48.738;9.226;2023-04-01T01:09:03;7.40;99.90
1379;DHT22;683;48.738;9.226;2023-04-01T01:11:38;7.40;99.90
1379;DHT22;683;48.738;9.226;2023-04-01T01:14:18;7.40;99.90
1379;DHT22;683;48.738;9.226;2023-04-01T01:16:50;7.40;99.90
1379;DHT22;683;48.738;9.226;2023-04-01T01:22:36;7.30;99.90
1379;DHT22;683;48.738;9.226;2023-04-01T01:25:23;7.30;99.90
1379;DHT22;683;48.738;9.226;2023-04-01T01:27:58;7.30;99.90
1379;DHT22;683;48.738;9.226;2023-04-01T01:30:39;7.30;99.90
1379;DHT22;683;48.738;9.226;2023-04-01T01:33:24;7.30;99.90
1379;DHT22;683;48.738;9.226;2023-04-01T01:36:02;7.40;99.90
1379;DHT22;683;48.738;9.226;2023-04-01T01:38:35;7.40;99.90
1379;DHT22;683;48.738;9.226;2023-04-01T01:41:06;7.40;99.90
1379;DHT22;683;48.738;9.226;2023-04-01T01:43:37;7.30;99.90
1379;DHT22;683;48.738;9.226;2023-04-01T01:46:08;7.30;99.90
1379;DHT22;683;48.738;9.226;2023-04-01T01:48:36;7.30;99.90
1379;DHT22;683;48.738;9.226;2023-04-01T01:51:06;7.30;99.90
1379;DHT22;683;48.738;9.226;2023-04-01T01:53:33;7.30;99.90
1379;DHT22;683;48.738;9.226;2023-04-01T01:56:01;7.30;99.90
1379;DHT22;683;48.738;9.226;2023-04-01T01:58:33;7.30;99.90
1379;DHT22;683;48.738;9.226;2023-04-01T02:01:10;7.20;99.90
1379;DHT22;683;48.738;9.226;2023-04-01T02:03:39;7.20;99.90
1379;DHT22;683;48.738;9.226;2023-04-01T02:06:15;7.20;99.90
1379;DHT22;683;48.738;9.226;2023-04-01T02:08:44;7.20;99.90
1379;DHT22;683;48.738;9.226;2023-04-01T02:11:15;7.10;99.90
1379;DHT22;683;48.738;9.226;2023-04-01T02:13:51;7.10;99.90
1379;DHT22;683;48.738;9.226;2023-04-01T02:16:22;7.10;99.90
1379;DHT22;683;48.738;9.226;2023-04-01T02:18:55;7.10;99.90
1379;DHT22;683;48.738;9.226;2023-04-01T02:21:30;7.00;99.90
1379;DHT22;683;48.738;9.226;2023-04-01T02:23:59;7.10;99.90
1379;DHT22;683;48.738;9.226;2023-04-01T02:26:28;7.00;99.90
1379;DHT22;683;48.738;9.226;2023-04-01T02:28:55;7.00;99.90
1379;DHT22;683;48.738;9.226;2023-04-01T02:31:25;6.90;99.90
1379;DHT22;683;48.738;9.226;2023-04-01T02:33:53;6.90;99.90
1379;DHT22;683;48.738;9.226;2023-04-01T02:36:21;6.90;99.90
1379;DHT22;683;48.738;9.226;2023-04-01T02:38:54;6.80;99.90
1379;DHT22;683;48.738;9.226;2023-04-01T02:41:25;6.80;99.90
1379;DHT22;683;48.738;9.226;2023-04-01T02:43:52;6.80;99.90
1379;DHT22;683;48.738;9.226;2023-04-01T02:46:21;6.80;99.90
1379;DHT22;683;48.738;9.226;2023-04-01T02:48:48;6.80;99.90
1379;DHT22;683;48.738;9.226;2023-04-01T02:51:15;6.80;99.90
1379;DHT22;683;48.738;9.226;2023-04-01T02:53:42;6.80;99.90
1379;DHT22;683;48.738;9.226;2023-04-01T02:56:11;6.80;99.90
1379;DHT22;683;48.738;9.226;2023-04-01T02:58:38;6.70;99.90
1379;DHT22;683;48.738;9.226;2023-04-01T03:01:05;6.70;99.90
1379;DHT22;683;48.738;9.226;2023-04-01T03:03:36;6.70;99.90
1379;DHT22;683;48.738;9.226;2023-04-01T03:06:07;6.70;99.90
1379;DHT22;683;48.738;9.226;2023-04-01T03:08:35;6.70;99.90
1379;DHT22;683;48.738;9.226;2023-04-01T03:11:02;6.60;99.90
1379;DHT22;683;48.738;9.226;2023-04-01T03:13:34;6.60;99.90
1379;DHT22;683;48.738;9.226;2023-04-01T03:16:02;6.60;99.90
1379;DHT22;683;48.738;9.226;2023-04-01T03:18:29;6.60;99.90
1379;DHT22;683;48.738;9.226;2023-04-01T03:20:57;6.60;99.90
1379;DHT22;683;48.738;9.226;2023-04-01T03:23:24;6.60;99.90
1379;DHT22;683;48.738;9.226;2023-04-01T03:25:51;6.70;99.90
1379;DHT22;683;48.738;9.226;2023-04-01T03:28:18;6.70;99.90
1379;DHT22;683;48.738;9.226;2023-04-01T03:30:47;6.70;99.90
1379;DHT22;683;48.738;9.226;2023-04-01T03:33:15;6.70;99.90
1379;DHT22;683;48.738;9.226;2023-04-01T03:35:42;6.70;99.90
1379;DHT22;683;48.738;9.226;2023-04-01T03:38:09;6.70;99.90
1379;DHT22;683;48.738;9.226;2023-04-01T03:40:36;6.80;99.90
1379;DHT22;683;48.738;9.226;2023-04-01T03:43:04;6.80;99.90
1379;DHT22;683;48.738;9.226;2023-04-01T03:45:34;6.80;99.90
1379;DHT22;683;48.738;9.226;2023-04-01T03:48:03;6.90;99.90
1379;DHT22;683;48.738;9.226;2023-04-01T03:50:30;6.90;99.90
1379;DHT22;683;48.738;9.226;2023-04-01T03:52:58;6.90;99.90
1379;DHT22;683;48.738;9.226;2023-04-01T03:55:25;6.90;99.90
1379;DHT22;683;48.738;9.226;2023-04-01T03:57:52;6.90;99.90
1379;DHT22;683;48.738;9.226;2023-04-01T04:00:19;6.80;99.90
1379;DHT22;683;48.738;9.226;2023-04-01T04:02:52;6.80;99.90
1379;DHT22;683;48.738;9.226;2023-04-01T04:05:27;6.80;99.90
1379;DHT22;683;48.738;9.226;2023-04-01T04:07:55;6.70;99.90
1379;DHT22;683;48.738;9.226;2023-04-01T04:10:22;6.60;99.90
1379;DHT22;683;48.738;9.226;2023-04-01T04:12:51;6.60;99.90
1379;DHT22;683;48.738;9.226;2023-04-01T04:15:20;6.50;99.90
1379;DHT22;683;48.738;9.226;2023-04-01T04:17:47;6.40;99.90
1379;DHT22;683;48.738;9.226;2023-04-01T04:20:15;6.40;99.90
1379;DHT22;683;48.738;9.226;2023-04-01T04:22:44;6.30;99.90
1379;DHT22;683;48.738;9.226;2023-04-01T04:25:11;6.30;99.90
1379;DHT22;683;48.738;9.226;2023-04-01T04:27:38;6.30;99.90
1379;DHT22;683;48.738;9.226;2023-04-01T04:30:08;6.30;99.90
1379;DHT22;683;48.738;9.226;2023-04-01T04:32:36;6.30;99.90
1379;DHT22;683;48.738;9.226;2023-04-01T04:35:05;6.30;99.90
1379;DHT22;683;48.738;9.226;2023-04-01T04:37:33;6.20;99.90
1379;DHT22;683;48.738;9.226;2023-04-01T04:40:02;6.20;99.90
1379;DHT22;683;48.738;9.226;2023-04-01T04:42:30;6.20;99.90
1379;DHT22;683;48.738;9.226;2023-04-01T04:45:04;6.20;99.90
1379;DHT22;683;48.738;9.226;2023-04-01T04:47:32;6.10;99.90
1379;DHT22;683;48.738;9.226;2023-04-01T04:49:59;6.10;99.90
1379;DHT22;683;48.738;9.226;2023-04-01T04:52:26;6.10;99.90
1379;DHT22;683;48.738;9.226;2023-04-01T04:54:53;6.10;99.90
1379;DHT22;683;48.738;9.226;2023-04-01T04:57:22;6.20;99.90
1379;DHT22;683;48.738;9.226;2023-04-01T04:59:54;6.20;99.90
1379;DHT22;683;48.738;9.226;2023-04-01T05:02:40;6.20;99.90
1379;DHT22;683;48.738;9.226;2023-04-01T05:05:07;6.20;99.90
1379;DHT22;683;48.738;9.226;2023-04-01T05:07:36;6.30;99.90
1379;DHT22;683;48.738;9.226;2023-04-01T05:10:04;6.30;99.90
1379;DHT22;683;48.738;9.226;2023-04-01T05:12:34;6.30;99.90
1379;DHT22;683;48.738;9.226;2023-04-01T05:15:05;6.30;99.90
1379;DHT22;683;48.738;9.226;2023-04-01T05:17:35;6.40;99.90
1379;DHT22;683;48.738;9.226;2023-04-01T05:20:04;6.50;99.90
1379;DHT22;683;48.738;9.226;2023-04-01T05:22:35;6.50;99.90
1379;DHT22;683;48.738;9.226;2023-04-01T05:25:02;6.50;99.90
1379;DHT22;683;48.738;9.226;2023-04-01T05:27:29;6.50;99.90
1379;DHT22;683;48.738;9.226;2023-04-01T05:29:59;6.50;99.90
1379;DHT22;683;48.738;9.226;2023-04-01T05:32:40;6.50;99.90
1379;DHT22;683;48.738;9.226;2023-04-01T05:35:08;6.60;99.90
1379;DHT22;683;48.738;9.226;2023-04-01T05:37:38;6.60;99.90
1379;DHT22;683;48.738;9.226;2023-04-01T05:40:06;6.60;99.90
1379;DHT22;683;48.738;9.226;2023-04-01T05:42:34;6.60;99.90
1379;DHT22;683;48.738;9.226;2023-04-01T05:45:03;6.70;99.90
1379;DHT22;683;48.738;9.226;2023-04-01T05:47:50;6.80;99.90
1379;DHT22;683;48.738;9.226;2023-04-01T05:50:18;6.80;99.90
1379;DHT22;683;48.738;9.226;2023-04-01T05:52:46;6.80;99.90
1379;DHT22;683;48.738;9.226;2023-04-01T05:55:13;6.90;99.90
1379;DHT22;683;48.738;9.226;2023-04-01T05:57:40;6.90;99.90
1379;DHT22;683;48.738;9.226;2023-04-01T06:00:10;7.00;99.90
1379;DHT22;683;48.738;9.226;2023-04-01T06:02:41;7.00;99.90
1379;DHT22;683;48.738;9.226;2023-04-01T06:05:15;7.10;99.90
1379;DHT22;683;48.738;9.226;2023-04-01T06:07:43;7.20;99.90
1379;DHT22;683;48.738;9.226;2023-04-01T06:10:12;7.20;99.90
1379;DHT22;683;48.738;9.226;2023-04-01T06:12:49;7.30;99.90
1379;DHT22;683;48.738;9.226;2023-04-01T06:15:38;7.40;99.90
1379;DHT22;683;48.738;9.226;2023-04-01T06:18:42;7.40;99.90
1379;DHT22;683;48.738;9.226;2023-04-01T06:21:44;7.60;99.90
1379;DHT22;683;48.738;9.226;2023-04-01T06:24:31;7.70;99.90
1379;DHT22;683;48.738;9.226;2023-04-01T06:27:12;7.80;99.90
1379;DHT22;683;48.738;9.226;2023-04-01T06:30:02;7.90;99.90
1379;DHT22;683;48.738;9.226;2023-04-01T06:32:59;7.90;99.90
1379;DHT22;683;48.738;9.226;2023-04-01T06:35:59;8.00;99.90
1379;DHT22;683;48.738;9.226;2023-04-01T06:38:45;8.00;99.90
1379;DHT22;683;48.738;9.226;2023-04-01T06:41:58;8.10;99.90
1379;DHT22;683;48.738;9.226;2023-04-01T06:44:39;8.10;99.90
1379;DHT22;683;48.738;9.226;2023-04-01T06:47:41;8.20;99.90
1379;DHT22;683;48.738;9.226;2023-04-01T06:50:34;8.30;99.90
1379;DHT22;683;48.738;9.226;2023-04-01T06:53:30;8.30;99.90
1379;DHT22;683;48.738;9.226;2023-04-01T06:56:37;8.30;99.90
1379;DHT22;683;48.738;9.226;2023-04-01T06:59:16;8.40;99.90
1379;DHT22;683;48.738;9.226;2023-04-01T07:01:47;8.40;99.90
1379;DHT22;683;48.738;9.226;2023-04-01T07:04:19;8.40;99.90
1379;DHT22;683;48.738;9.226;2023-04-01T07:06:52;8.50;99.90
1379;DHT22;683;48.738;9.226;2023-04-01T07:09:24;8.50;99.90
1379;DHT22;683;48.738;9.226;2023-04-01T07:12:18;8.60;99.90
1379;DHT22;683;48.738;9.226;2023-04-01T07:15:14;8.70;99.90
1379;DHT22;683;48.738;9.226;2023-04-01T07:17:44;8.80;99.90
1379;DHT22;683;48.738;9.226;2023-04-01T07:20:17;8.80;99.90
1379;DHT22;683;48.738;9.226;2023-04-01T07:22:50;8.80;99.90
1379;DHT22;683;48.738;9.226;2023-04-01T07:25:27;8.80;99.90
1379;DHT22;683;48.738;9.226;2023-04-01T07:28:22;8.90;99.90
1379;DHT22;683;48.738;9.226;2023-04-01T07:31:13;8.90;99.90
1379;DHT22;683;48.738;9.226;2023-04-01T07:33:48;8.90;99.90
1379;DHT22;683;48.738;9.226;2023-04-01T07:36:23;8.90;99.90
1379;DHT22;683;48.738;9.226;2023-04-01T07:39:01;8.90;99.90
1379;DHT22;683;48.738;9.226;2023-04-01T07:41:55;8.90;99.90
1379;DHT22;683;48.738;9.226;2023-04-01T07:44:29;8.90;99.90
1379;DHT22;683;48.738;9.226;2023-04-01T07:50:19;8.90;99.90
1379;DHT22;683;48.738;9.226;2023-04-01T07:52:57;8.90;99.90
1379;DHT22;683;48.738;9.226;2023-04-01T07:55:33;9.00;99.90
1379;DHT22;683;48.738;9.226;2023-04-01T07:58:09;9.00;99.90
1379;DHT22;683;48.738;9.226;2023-04-01T08:00:48;9.00;99.90
1379;DHT22;683;48.738;9.226;2023-04-01T08:03:40;9.00;99.90
1379;DHT22;683;48.738;9.226;2023-04-01T08:06:20;9.10;99.90
1379;DHT22;683;48.738;9.226;2023-04-01T08:08:59;9.10;99.90
1379;DHT22;683;48.738;9.226;2023-04-01T08:12:08;9.20;99.90
1379;DHT22;683;48.738;9.226;2023-04-01T08:15:06;9.20;99.90
1379;DHT22;683;48.738;9.226;2023-04-01T08:18:12;9.30;99.90
1379;DHT22;683;48.738;9.226;2023-04-01T08:20:48;9.30;99.90
1379;DHT22;683;48.738;9.226;2023-04-01T08:23:19;9.30;99.90
1379;DHT22;683;48.738;9.226;2023-04-01T08:25:52;9.40;99.90
1379;DHT22;683;48.738;9.226;2023-04-01T08:28:29;9.40;99.90
1379;DHT22;683;48.738;9.226;2023-04-01T08:31:05;9.40;99.90
1379;DHT22;683;48.738;9.226;2023-04-01T08:33:34;9.40;99.90
1379;DHT22;683;48.738;9.226;2023-04-01T08:36:10;9.40;99.90
1379;DHT22;683;48.738;9.226;2023-04-01T08:38:44;9.40;99.90
1379;DHT22;683;48.738;9.226;2023-04-01T08:41:40;9.40;99.90
1379;DHT22;683;48.738;9.226;2023-04-01T08:44:50;9.40;99.90
1379;DHT22;683;48.738;9.226;2023-04-01T08:47:42;9.30;99.90
1379;DHT22;683;48.738;9.226;2023-04-01T08:50:35;9.30;99.90
1379;DHT22;683;48.738;9.226;2023-04-01T08:53:47;9.10;99.90
1379;DHT22;683;48.738;9.226;2023-04-01T08:56:21;8.80;99.90
1379;DHT22;683;48.738;9.226;2023-04-01T08:59:17;8.50;99.90
1379;DHT22;683;48.738;9.226;2023-04-01T09:08:24;8.00;99.90
1379;DHT22;683;48.738;9.226;2023-04-01T09:11:06;7.90;99.90
1379;DHT22;683;48.738;9.226;2023-04-01T09:14:28;8.00;99.90
1379;DHT22;683;48.738;9.226;2023-04-01T09:17:40;8.10;99.90
1379;DHT22;683;48.738;9.226;2023-04-01T09:20:24;8.20;99.90
1379;DHT22;683;48.738;9.226;2023-04-01T09:23:35;8.40;99.90
1379;DHT22;683;48.738;9.226;2023-04-01T09:26:33;8.60;99.90
1379;DHT22;683;48.738;9.226;2023-04-01T09:29:18;8.70;99.90
1379;DHT22;683;48.738;9.226;2023-04-01T09:35:02;9.10;99.90
1379;DHT22;683;48.738;9.226;2023-04-01T09:37:51;9.30;99.90
1379;DHT22;683;48.738;9.226;2023-04-01T09:40:33;9.60;99.90
1379;DHT22;683;48.738;9.226;2023-04-01T09:43:26;9.70;99.90
1379;DHT22;683;48.738;9.226;2023-04-01T09:46:20;9.70;99.90
1379;DHT22;683;48.738;9.226;2023-04-01T09:51:53;9.40;99.90
1379;DHT22;683;48.738;9.226;2023-04-01T09:54:36;9.30;99.90
1379;DHT22;683;48.738;9.226;2023-04-01T09:57:40;9.30;99.90
1379;DHT22;683;48.738;9.226;2023-04-01T10:00:55;9.30;99.90
1379;DHT22;683;48.738;9.226;2023-04-01T10:03:54;9.20;99.90
1379;DHT22;683;48.738;9.226;2023-04-01T10:19:15;9.20;99.90
1379;DHT22;683;48.738;9.226;2023-04-01T10:22:20;9.20;99.90
1379;DHT22;683;48.738;9.226;2023-04-01T10:25:23;9.20;99.90
1379;DHT22;683;48.738;9.226;2023-04-01T10:28:30;9.30;99.90
1379;DHT22;683;48.738;9.226;2023-04-01T10:31:50;9.40;99.90
1379;DHT22;683;48.738;9.226;2023-04-01T10:34:56;9.60;99.90
1379;DHT22;683;48.738;9.226;2023-04-01T10:41:34;10.00;99.90
1379;DHT22;683;48.738;9.226;2023-04-01T10:45:00;10.30;99.90
1379;DHT22;683;48.738;9.226;2023-04-01T10:51:02;10.70;99.90
1379;DHT22;683;48.738;9.226;2023-04-01T10:53:49;10.70;99.90
1379;DHT22;683;48.738;9.226;2023-04-01T10:56:59;10.90;99.90
1379;DHT22;683;48.738;9.226;2023-04-01T11:00:23;11.00;99.90
1379;DHT22;683;48.738;9.226;2023-04-01T11:03:54;11.10;99.90
1379;DHT22;683;48.738;9.226;2023-04-01T11:10:30;10.90;99.80
1379;DHT22;683;48.738;9.226;2023-04-01T11:13:34;10.80;99.90
1379;DHT22;683;48.738;9.226;2023-04-01T11:16:42;10.80;99.90
1379;DHT22;683;48.738;9.226;2023-04-01T11:19:38;10.60;99.90
1379;DHT22;683;48.738;9.226;2023-04-01T11:22:41;10.50;99.90
1379;DHT22;683;48.738;9.226;2023-04-01T11:31:29;10.70;99.90
1379;DHT22;683;48.738;9.226;2023-04-01T11:34:13;10.80;99.50
1379;DHT22;683;48.738;9.226;2023-04-01T11:36:51;11.00;99.90
1379;DHT22;683;48.738;9.226;2023-04-01T11:39:32;11.10;99.10
1379;DHT22;683;48.738;9.226;2023-04-01T11:42:27;11.10;97.70
1379;DHT22;683;48.738;9.226;2023-04-01T11:45:24;11.10;97.90
1379;DHT22;683;48.738;9.226;2023-04-01T11:48:17;11.30;98.30
1379;DHT22;683;48.738;9.226;2023-04-01T11:53:52;11.30;96.40
1379;DHT22;683;48.738;9.226;2023-04-01T12:02:20;11.20;97.20
1379;DHT22;683;48.738;9.226;2023-04-01T12:05:21;11.20;96.80
1379;DHT22;683;48.738;9.226;2023-04-01T12:10:51;10.90;97.40
1379;DHT22;683;48.738;9.226;2023-04-01T12:13:31;10.80;98.10
1379;DHT22;683;48.738;9.226;2023-04-01T12:16:22;10.80;98.20
1379;DHT22;683;48.738;9.226;2023-04-01T12:18:57;10.90;98.20
1379;DHT22;683;48.738;9.226;2023-04-01T12:21:30;10.90;98.40
1379;DHT22;683;48.738;9.226;2023-04-01T12:24:18;10.90;98.40
1379;DHT22;683;48.738;9.226;2023-04-01T12:27:06;10.90;98.10
1379;DHT22;683;48.738;9.226;2023-04-01T12:29:51;10.90;99.10
1379;DHT22;683;48.738;9.226;2023-04-01T12:32:25;11.00;98.70
1379;DHT22;683;48.738;9.226;2023-04-01T12:35:13;11.00;98.60
1379;DHT22;683;48.738;9.226;2023-04-01T12:38:01;11.00;98.10
1379;DHT22;683;48.738;9.226;2023-04-01T12:40:47;11.10;97.60
1379;DHT22;683;48.738;9.226;2023-04-01T12:46:42;11.50;96.30
1379;DHT22;683;48.738;9.226;2023-04-01T12:49:34;11.60;96.00
1379;DHT22;683;48.738;9.226;2023-04-01T12:52:12;11.80;96.40
1379;DHT22;683;48.738;9.226;2023-04-01T12:55:13;12.00;96.00
1379;DHT22;683;48.738;9.226;2023-04-01T13:01:03;11.90;95.60
1379;DHT22;683;48.738;9.226;2023-04-01T13:04:00;11.90;95.00
1379;DHT22;683;48.738;9.226;2023-04-01T13:06:44;11.90;94.70
1379;DHT22;683;48.738;9.226;2023-04-01T13:09:36;11.90;94.70
1379;DHT22;683;48.738;9.226;2023-04-01T13:12:27;11.90;95.00
1379;DHT22;683;48.738;9.226;2023-04-01T13:15:12;12.00;94.80
1379;DHT22;683;48.738;9.226;2023-04-01T13:17:52;11.90;94.30
1379;DHT22;683;48.738;9.226;2023-04-01T13:20:27;11.80;94.40
1379;DHT22;683;48.738;9.226;2023-04-01T13:23:05;11.80;94.90
1379;DHT22;683;48.738;9.226;2023-04-01T13:25:44;11.70;95.20
1379;DHT22;683;48.738;9.226;2023-04-01T13:28:18;11.60;94.60
1379;DHT22;683;48.738;9.226;2023-04-01T13:30:51;11.60;94.90
1379;DHT22;683;48.738;9.226;2023-04-01T13:33:27;11.40;94.70
1379;DHT22;683;48.738;9.226;2023-04-01T13:36:06;11.30;94.60
1379;DHT22;683;48.738;9.226;2023-04-01T13:38:55;11.30;94.70
1379;DHT22;683;48.738;9.226;2023-04-01T13:41:38;11.20;94.50
1379;DHT22;683;48.738;9.226;2023-04-01T13:44:17;11.30;95.00
1379;DHT22;683;48.738;9.226;2023-04-01T13:47:00;11.50;94.80
1379;DHT22;683;48.738;9.226;2023-04-01T13:49:48;11.60;95.00
1379;DHT22;683;48.738;9.226;2023-04-01T13:52:46;11.80;95.10
1379;DHT22;683;48.738;9.226;2023-04-01T13:55:33;11.70;94.70
1379;DHT22;683;48.738;9.226;2023-04-01T13:58:34;11.60;94.80
1379;DHT22;683;48.738;9.226;2023-04-01T14:01:12;11.60;95.00
1379;DHT22;683;48.738;9.226;2023-04-01T14:03:54;11.70;94.60
1379;DHT22;683;48.738;9.226;2023-04-01T14:06:37;11.70;94.80
1379;DHT22;683;48.738;9.226;2023-04-01T14:09:33;11.70;94.70
1379;DHT22;683;48.738;9.226;2023-04-01T14:12:05;11.70;95.00
1379;DHT22;683;48.738;9.226;2023-04-01T14:14:56;11.80;94.50
1379;DHT22;683;48.738;9.226;2023-04-01T14:17:39;11.90;94.80
1379;DHT22;683;48.738;9.226;2023-04-01T14:20:26;12.00;94.90
1379;DHT22;683;48.738;9.226;2023-04-01T14:23:23;12.00;94.40
1379;DHT22;683;48.738;9.226;2023-04-01T14:29:15;11.90;94.70
1379;DHT22;683;48.738;9.226;2023-04-01T14:32:02;11.80;94.80
1379;DHT22;683;48.738;9.226;2023-04-01T14:34:44;11.70;95.00
1379;DHT22;683;48.738;9.226;2023-04-01T14:37:23;11.50;95.30
1379;DHT22;683;48.738;9.226;2023-04-01T14:40:05;11.50;95.50
1379;DHT22;683;48.738;9.226;2023-04-01T14:43:01;11.40;95.50
1379;DHT22;683;48.738;9.226;2023-04-01T14:45:47;11.40;95.50
1379;DHT22;683;48.738;9.226;2023-04-01T14:48:30;11.30;95.50
1379;DHT22;683;48.738;9.226;2023-04-01T14:51:03;11.20;95.80
1379;DHT22;683;48.738;9.226;2023-04-01T14:53:36;11.10;96.00
1379;DHT22;683;48.738;9.226;2023-04-01T14:56:07;11.10;96.00
1379;DHT22;683;48.738;9.226;2023-04-01T14:58:47;11.10;96.00
1379;DHT22;683;48.738;9.226;2023-04-01T15:01:27;11.10;96.00
1379;DHT22;683;48.738;9.226;2023-04-01T15:04:08;11.10;95.70
1379;DHT22;683;48.738;9.226;2023-04-01T15:06:53;11.00;95.30
1379;DHT22;683;48.738;9.226;2023-04-01T15:09:30;11.10;95.30
1379;DHT22;683;48.738;9.226;2023-04-01T15:12:07;11.10;95.00
1379;DHT22;683;48.738;9.226;2023-04-01T15:15:02;11.20;95.30
1379;DHT22;683;48.738;9.226;2023-04-01T15:17:46;11.10;94.70
1379;DHT22;683;48.738;9.226;2023-04-01T15:20:42;11.00;95.10
1379;DHT22;683;48.738;9.226;2023-04-01T15:23:25;10.90;95.50
1379;DHT22;683;48.738;9.226;2023-04-01T15:26:19;10.80;95.80
1379;DHT22;683;48.738;9.226;2023-04-01T15:28:59;10.80;96.10
1379;DHT22;683;48.738;9.226;2023-04-01T15:31:31;10.90;96.40
1379;DHT22;683;48.738;9.226;2023-04-01T15:34:13;11.00;96.30
1379;DHT22;683;48.738;9.226;2023-04-01T15:36:52;11.10;96.30
1379;DHT22;683;48.738;9.226;2023-04-01T15:39:24;11.10;95.70
1379;DHT22;683;48.738;9.226;2023-04-01T15:42:11;11.10;95.40
1379;DHT22;683;48.738;9.226;2023-04-01T15:44:52;11.00;95.80
1379;DHT22;683;48.738;9.226;2023-04-01T15:47:44;11.00;95.60
1379;DHT22;683;48.738;9.226;2023-04-01T15:53:31;10.90;96.60
1379;DHT22;683;48.738;9.226;2023-04-01T15:56:13;10.80;97.00
1379;DHT22;683;48.738;9.226;2023-04-01T15:58:54;10.60;97.00
1379;DHT22;683;48.738;9.226;2023-04-01T16:01:34;10.50;96.70
1379;DHT22;683;48.738;9.226;2023-04-01T16:04:28;10.40;96.80
1379;DHT22;683;48.738;9.226;2023-04-01T16:07:10;10.40;96.80
1379;DHT22;683;48.738;9.226;2023-04-01T16:09:57;10.30;97.00
1379;DHT22;683;48.738;9.226;2023-04-01T16:12:41;10.30;97.20
1379;DHT22;683;48.738;9.226;2023-04-01T16:15:21;10.30;97.60
1379;DHT22;683;48.738;9.226;2023-04-01T16:18:14;10.30;97.80
1379;DHT22;683;48.738;9.226;2023-04-01T16:20:49;10.30;97.80
1379;DHT22;683;48.738;9.226;2023-04-01T16:23:22;10.20;98.10
1379;DHT22;683;48.738;9.226;2023-04-01T16:26:01;10.10;98.70
1379;DHT22;683;48.738;9.226;2023-04-01T16:28:32;10.10;99.00
1379;DHT22;683;48.738;9.226;2023-04-01T16:31:06;10.00;98.70
1379;DHT22;683;48.738;9.226;2023-04-01T16:33:44;10.00;98.90
1379;DHT22;683;48.738;9.226;2023-04-01T16:36:22;9.90;99.40
1379;DHT22;683;48.738;9.226;2023-04-01T16:38:58;9.90;99.50
1379;DHT22;683;48.738;9.226;2023-04-01T16:41:33;9.80;99.70
1379;DHT22;683;48.738;9.226;2023-04-01T16:44:13;9.80;99.90
1379;DHT22;683;48.738;9.226;2023-04-01T16:46:45;9.80;99.90
1379;DHT22;683;48.738;9.226;2023-04-01T16:49:32;9.70;99.90
1379;DHT22;683;48.738;9.226;2023-04-01T16:52:17;9.70;
1379;DHT22;683;48.738;9.226;2023-04-01T16:54:54;9.80;99.90
1379;DHT22;683;48.738;9.226;2023-04-01T16:57:27;9.80;99.90
1379;DHT22;683;48.738;9.226;2023-04-01T17:00:09;9.80;99.90
1379;DHT22;683;48.738;9.226;2023-04-01T17:02:47;9.90;99.90
1379;DHT22;683;48.738;9.226;2023-04-01T17:05:16;9.90;99.90
1379;DHT22;683;48.738;9.226;2023-04-01T17:07:50;9.90;99.90
1379;DHT22;683;48.738;9.226;2023-04-01T17:10:41;9.90;99.90
1379;DHT22;683;48.738;9.226;2023-04-01T17:13:27;9.90;99.90
1379;DHT22;683;48.738;9.226;2023-04-01T17:16:05;9.90;99.90
1379;DHT22;683;48.738;9.226;2023-04-01T17:18:42;9.90;99.90
1379;DHT22;683;48.738;9.226;2023-04-01T17:21:20;9.90;99.90
1379;DHT22;683;48.738;9.226;2023-04-01T17:23:58;9.80;99.90
1379;DHT22;683;48.738;9.226;2023-04-01T17:26:35;9.80;99.90
1379;DHT22;683;48.738;9.226;2023-04-01T17:29:15;9.80;99.90
1379;DHT22;683;48.738;9.226;2023-04-01T17:31:52;9.80;99.90
1379;DHT22;683;48.738;9.226;2023-04-01T17:34:42;9.70;99.90
1379;DHT22;683;48.738;9.226;2023-04-01T17:37:28;9.70;99.90
1379;DHT22;683;48.738;9.226;2023-04-01T17:40:07;9.60;99.90
1379;DHT22;683;48.738;9.226;2023-04-01T17:42:41;9.60;99.90
1379;DHT22;683;48.738;9.226;2023-04-01T17:45:21;9.50;99.90
1379;DHT22;683;48.738;9.226;2023-04-01T17:48:02;9.50;99.90
1379;DHT22;683;48.738;9.226;2023-04-01T17:50:48;9.50;99.90
1379;DHT22;683;48.738;9.226;2023-04-01T17:53:27;9.50;99.90
1379;DHT22;683;48.738;9.226;2023-04-01T17:56:10;9.50;99.90
1379;DHT22;683;48.738;9.226;2023-04-01T17:58:45;9.40;99.90
1379;DHT22;683;48.738;9.226;2023-04-01T18:01:34;9.40;99.90
1379;DHT22;683;48.738;9.226;2023-04-01T18:04:11;9.40;99.90
1379;DHT22;683;48.738;9.226;2023-04-01T18:06:59;9.40;99.90
1379;DHT22;683;48.738;9.226;2023-04-01T18:09:39;9.30;99.90
1379;DHT22;683;48.738;9.226;2023-04-01T18:12:14;9.30;99.90
1379;DHT22;683;48.738;9.226;2023-04-01T18:15:03;9.30;99.90
1379;DHT22;683;48.738;9.226;2023-04-01T18:17:44;9.30;99.90
1379;DHT22;683;48.738;9.226;2023-04-01T18:20:27;9.30;99.90
1379;DHT22;683;48.738;9.226;2023-04-01T18:22:59;9.30;99.90
1379;DHT22;683;48.738;9.226;2023-04-01T18:25:32;9.30;99.90
1379;DHT22;683;48.738;9.226;2023-04-01T18:28:24;9.20;99.90
1379;DHT22;683;48.738;9.226;2023-04-01T18:31:08;9.10;99.90
1379;DHT22;683;48.738;9.226;2023-04-01T18:33:46;9.10;99.90
1379;DHT22;683;48.738;9.226;2023-04-01T18:36:19;9.10;99.90
1379;DHT22;683;48.738;9.226;2023-04-01T18:38:50;9.00;99.90
1379;DHT22;683;48.738;9.226;2023-04-01T18:41:26;8.90;99.90
1379;DHT22;683;48.738;9.226;2023-04-01T18:44:04;8.80;99.90
1379;DHT22;683;48.738;9.226;2023-04-01T18:46:41;8.70;99.90
1379;DHT22;683;48.738;9.226;2023-04-01T18:49:19;8.70;99.90
1379;DHT22;683;48.738;9.226;2023-04-01T18:51:50;8.60;99.90
1379;DHT22;683;48.738;9.226;2023-04-01T18:54:24;8.50;99.90
1379;DHT22;683;48.738;9.226;2023-04-01T18:57:10;8.50;99.90
1379;DHT22;683;48.738;9.226;2023-04-01T18:59:40;8.40;99.90
1379;DHT22;683;48.738;9.226;2023-04-01T19:02:19;8.30;99.90
1379;DHT22;683;48.738;9.226;2023-04-01T19:04:57;8.20;99.90